Latest Weather Observations for Cape Flattery

IDQ60801

Issued at 10:02 am EST Tuesday 23 December 2014 (issued every 30 minutes, with the page automatically refreshed every 10 minutes)

About weather observations | Map of weather stations | Latest weather observations for QLD | Other Formats
Station Details ID: 031213 Name: CAPE FLATTERY Lat: -14.97 Lon: 145.31 Height: 18.5 m
Data from the previous 72 hours. | See also: Recent months at Cape Flattery
Date/Time
EST
Temp
°C
App
Temp
°C
Dew
Point
Rel
Hum
%
Delta-T
°C
Wind Press
QNH
hPa
Press
MSL
hPa
Rain
since 9 am
mm
Dir
 
Spd
km/h
Gust
km/h
Spd
kts
Gust
kts
23/10:00am 30.9 29.3 20.8 55 6.7 SE 30 41 16 22 1011.7 1011.6 0.0
23/09:30am 30.6 29.3 21.4 58 6.2 SE 30 41 16 22 1011.6 1011.5 0.0
23/09:00am 28.1 27.3 21.6 68 4.4 SE 28 41 15 22 1011.4 1011.3 0.2
23/08:30am 29.5 28.0 20.9 60 5.7 SE 30 37 16 20 1011.5 1011.4 0.2
23/08:00am 28.9 27.0 20.9 62 5.3 SE 32 39 17 21 1010.9 1010.8 0.2
23/07:30am 28.3 27.0 20.6 63 5.1 SE 28 39 15 21 1010.5 1010.4 0.2
23/07:00am 28.1 26.7 20.4 63 5.1 SE 28 39 15 21 1010.2 1010.1 0.2
23/06:30am 27.6 26.7 20.7 66 4.6 SE 26 39 14 21 1009.9 1009.8 0.2
23/06:00am 27.3 26.5 20.9 68 4.2 SE 26 39 14 21 1009.8 1009.7 0.2
23/05:30am 27.2 26.5 21.0 69 4.1 SE 26 39 14 21 1009.3 1009.2 0.2
23/05:00am 27.2 26.4 20.8 68 4.2 SE 26 37 14 20 1009.2 1009.1 0.2
23/04:30am 27.1 26.6 20.7 68 4.2 ESE 24 33 13 18 1008.9 1008.8 0.2
23/04:00am 27.3 26.0 20.6 67 4.4 SE 28 41 15 22 1008.8 1008.7 0.2
23/03:30am 27.3 26.4 20.6 67 4.4 SE 26 37 14 20 1008.9 1008.8 0.2
23/03:00am 27.2 26.7 20.8 68 4.2 SE 24 32 13 17 1008.8 1008.7 0.2
23/02:30am 27.4 26.3 20.2 65 4.7 ESE 26 39 14 21 1009.0 1008.9 0.2
23/02:00am 27.4 26.5 21.4 70 4.0 ESE 28 35 15 19 1009.3 1009.2 0.2
23/01:30am 27.4 26.9 21.4 70 4.0 ESE 26 41 14 22 1009.2 1009.1 0.2
23/01:00am 27.5 27.3 21.3 69 4.1 ESE 24 35 13 19 1009.7 1009.6 0.2
23/12:30am 27.5 27.3 21.3 69 4.1 ESE 24 37 13 20 1009.9 1009.8 0.2
23/12:00am 27.5 27.0 20.8 67 4.4 ESE 24 35 13 19 1010.4 1010.3 0.2
 
Date/Time
EST
Temp
°C
App
Temp
°C
Dew
Point
Rel
Hum
%
Delta-T
°C
Wind Press
QNH
hPa
Press
MSL
hPa
Rain
since 9 am
mm
Dir
 
Spd
km/h
Gust
km/h
Spd
kts
Gust
kts
22/11:30pm 27.7 26.3 20.5 65 4.7 ESE 28 39 15 21 1010.7 1010.6 0.2
22/11:00pm 27.7 26.0 20.5 65 4.7 ESE 30 43 16 23 1010.7 1010.6 0.2
22/10:30pm 27.8 26.0 20.4 64 4.9 ESE 30 43 16 23 1011.0 1010.9 0.2
22/10:00pm 27.8 26.3 20.9 66 4.6 SE 30 43 16 23 1011.1 1011.0 0.2
22/09:30pm 27.9 26.8 21.0 66 4.6 ESE 28 41 15 22 1011.0 1010.9 0.2
22/09:00pm 28.0 26.3 21.3 67 4.5 SE 32 43 17 23 1010.9 1010.8 0.2
22/08:30pm 28.1 27.5 21.9 69 4.2 SE 28 41 15 22 1010.7 1010.6 0.2
22/08:00pm 28.1 27.6 22.1 70 4.0 SE 28 41 15 22 1010.5 1010.4 0.2
22/07:30pm 27.6 26.0 20.7 66 4.6 SE 30 43 16 23 1010.6 1010.5 0.2
22/07:00pm 27.2 25.7 22.8 77 3.0 SE 35 48 19 26 1010.5 1010.4 0.2
22/06:30pm 28.2 27.7 22.9 73 3.6 SE 30 41 16 22 1010.0 1009.9 0.2
22/06:00pm 29.2 28.7 22.2 66 4.7 SE 28 37 15 20 1009.6 1009.5 0.2
22/05:30pm 29.8 29.7 22.3 64 5.1 SE 26 39 14 21 1009.5 1009.4 0.2
22/05:00pm 30.1 29.7 23.0 65 4.9 SE 30 41 16 22 1009.0 1008.9 0.2
22/04:30pm 30.7 30.2 22.8 62 5.4 SE 30 41 16 22 1008.8 1008.7 0.2
22/04:00pm 30.4 29.6 22.3 62 5.5 SE 30 41 16 22 1008.8 1008.7 0.2
22/03:30pm 31.1 29.7 21.9 58 6.2 SE 32 41 17 22 1008.9 1008.8 0.2
22/03:00pm 32.2 31.9 23.2 59 6.2 SE 30 43 16 23 1008.9 1008.8 0.2
22/02:30pm 31.9 32.0 23.2 60 6.0 SE 28 41 15 22 1009.4 1009.3 0.2
22/02:00pm 31.8 31.6 22.8 59 6.2 SE 28 35 15 19 1009.9 1009.8 0.2
22/01:30pm 32.3 32.1 22.7 57 6.6 SE 28 37 15 20 1010.2 1010.1 0.2
22/01:00pm 31.9 31.5 22.3 56 6.6 ESE 28 39 15 21 1010.3 1010.2 0.2
22/12:30pm 31.9 31.6 22.6 58 6.4 ESE 28 39 15 21 1010.6 1010.5 0.2
22/12:00pm 32.6 33.1 22.7 56 6.8 SE 24 33 13 18 1010.7 1010.6 0.2
22/11:30am 31.1 30.3 22.4 60 5.9 SE 30 39 16 21 1011.0 1010.9 0.2
22/11:00am 31.6 31.2 22.3 57 6.3 SE 28 41 15 22 1011.4 1011.3 0.2
22/10:30am 30.7 31.9 23.9 67 4.7 SE 24 35 13 19 1011.5 1011.4 0.2
22/10:00am 29.8 30.9 23.0 67 4.7 SE 22 30 12 16 1011.5 1011.4 0.2
22/09:30am 30.5 31.7 23.2 65 5.0 ESE 22 30 12 16 1011.3 1011.2 0.2
22/09:00am 29.6 31.0 23.5 69 4.2 ESE 22 32 12 17 1011.2 1011.1 0.4
22/08:30am 29.7 31.1 22.9 67 4.6 ESE 20 28 11 15 1011.2 1011.1 0.4
22/08:00am 29.3 30.8 23.0 69 4.3 ESE 20 28 11 15 1011.1 1011.0 0.4
22/07:30am 28.4 29.7 22.6 71 3.9 SE 20 26 11 14 1010.8 1010.7 0.4
22/07:00am 27.7 30.1 23.7 79 2.8 ESE 17 22 9 12 1010.5 1010.4 0.4
22/06:30am 26.5 29.0 23.2 82 2.2 ESE 15 20 8 11 1010.2 1010.1 0.4
22/06:00am 25.9 28.4 23.2 85 1.8 ESE 15 20 8 11 1009.9 1009.8 0.4
22/05:30am 27.3 29.2 22.7 76 3.1 E 17 26 9 14 1009.5 1009.4 0.0
22/05:00am 27.1 29.5 22.9 78 2.9 ESE 15 24 8 13 1009.1 1009.0 0.0
22/04:30am 27.0 28.7 22.4 76 3.1 ESE 17 24 9 13 1008.9 1008.8 0.0
22/04:00am 27.5 28.9 21.8 71 3.8 ESE 17 24 9 13 1008.9 1008.8 0.0
22/03:30am 27.3 28.7 21.8 72 3.7 ESE 17 22 9 12 1008.9 1008.8 0.0
22/03:00am 27.5 29.1 21.5 70 4.0 ESE 15 22 8 12 1009.1 1009.0 0.0
22/02:30am 27.5 29.0 22.0 72 3.7 ESE 17 24 9 13 1009.2 1009.1 0.0
22/02:00am 27.6 28.9 22.3 73 3.6 ESE 19 26 10 14 1009.5 1009.4 0.0
22/01:30am 27.5 29.0 22.0 72 3.7 E 17 28 9 15 1009.8 1009.7 0.0
22/01:00am 27.5 29.5 22.2 73 3.6 ESE 15 20 8 11 1010.2 1010.1 0.0
22/12:30am 27.7 28.9 22.2 72 3.7 ESE 19 30 10 16 1010.6 1010.5 0.0
22/12:00am 27.7 29.3 22.2 72 3.7 ESE 17 22 9 12 1011.0 1010.9 0.0
 
Date/Time
EST
Temp
°C
App
Temp
°C
Dew
Point
Rel
Hum
%
Delta-T
°C
Wind Press
QNH
hPa
Press
MSL
hPa
Rain
since 9 am
mm
Dir
 
Spd
km/h
Gust
km/h
Spd
kts
Gust
kts
21/11:30pm 27.7 28.6 22.0 71 3.8 ESE 20 30 11 16 1011.4 1011.3 0.0
21/11:00pm 27.9 28.7 22.4 72 3.7 ESE 22 32 12 17 1011.4 1011.3 0.0
21/10:30pm 28.0 28.4 22.5 72 3.7 SE 24 33 13 18 1011.3 1011.2 0.0
21/10:00pm 28.0 28.8 22.5 72 3.7 SE 22 35 12 19 1011.2 1011.1 0.0
21/09:30pm 28.0 29.5 23.1 74 3.3 SE 20 28 11 15 1011.1 1011.0 0.0
21/09:00pm 27.8 29.3 22.7 74 3.5 ESE 19 28 10 15 1010.7 1010.6 0.0
21/08:30pm 27.9 29.2 22.4 72 3.7 ESE 19 28 10 15 1010.4 1010.3 0.0
21/08:00pm 27.6 28.7 23.0 76 3.1 SE 22 33 12 18 1010.3 1010.2 0.0
21/07:30pm 27.8 29.4 23.2 76 3.1 ESE 20 30 11 16 1010.0 1009.9 0.0
21/07:00pm 27.7 28.1 23.1 76 3.1 SE 26 37 14 20 1009.9 1009.8 0.0
21/06:30pm 28.2 28.6 23.1 74 3.5 SE 26 37 14 20 1009.7 1009.6 0.0
21/06:00pm 29.1 30.7 22.8 69 4.3 SE 19 26 10 14 1009.3 1009.2 0.0
21/05:30pm 29.8 31.2 22.8 66 4.8 SE 20 30 11 16 1009.4 1009.3 0.0
21/05:00pm 30.5 31.8 22.7 63 5.3 ESE 20 26 11 14 1009.3 1009.2 0.0
21/04:30pm 30.9 32.1 22.5 61 5.7 ESE 20 26 11 14 1009.3 1009.2 0.0
21/04:00pm 31.3 32.1 21.8 57 6.4 SE 20 30 11 16 1009.5 1009.4 0.0
21/03:30pm 31.5 32.0 21.9 56 6.5 SE 22 32 12 17 1009.6 1009.5 0.0
21/03:00pm 31.5 31.7 21.4 55 6.8 SE 22 32 12 17 1009.9 1009.8 0.0
21/02:30pm 32.3 33.3 22.1 55 6.9 SE 20 32 11 17 1010.0 1009.9 0.0
21/02:00pm 32.2 32.6 21.7 54 7.1 ESE 22 32 12 17 1010.3 1010.2 0.0
21/01:30pm 32.0 32.1 21.8 54 6.9 SE 24 32 13 17 1010.6 1010.5 0.0
21/01:00pm 31.8 31.6 21.3 53 7.1 SE 24 35 13 19 1010.8 1010.7 0.0
21/12:30pm 31.6 31.8 22.0 56 6.5 SE 24 35 13 19 1010.9 1010.8 0.0
21/12:00pm 32.0 32.5 22.7 58 6.4 SE 24 33 13 18 1011.5 1011.4 0.0
21/11:30am 32.6 33.4 21.8 53 7.3 SE 20 28 11 15 1011.9 1011.8 0.0
21/11:00am 31.5 31.9 21.7 56 6.6 SE 22 32 12 17 1012.1 1012.0 0.0
21/10:30am 32.2 32.7 22.6 57 6.6 ESE 24 32 13 17 1012.2 1012.1 0.0
21/10:00am 31.0 31.3 21.5 57 6.4 ESE 22 33 12 18 1012.2 1012.1 0.0
21/09:30am 30.9 31.0 21.9 58 6.1 ESE 24 32 13 17 1012.1 1012.0 0.0
21/09:00am 31.0 32.1 22.3 60 5.9 ESE 20 28 11 15 1011.9 1011.8 0.0
21/08:30am 30.2 31.3 22.4 63 5.3 ESE 20 30 11 16 1011.9 1011.8 0.0
21/08:00am 29.8 30.7 22.0 63 5.3 ESE 20 26 11 14 1011.6 1011.5 0.0
21/07:30am 29.7 31.6 22.7 66 4.8 E 17 28 9 15 1011.1 1011.0 0.0
21/07:00am 28.5 30.4 22.0 68 4.4 ESE 15 20 8 11 1011.1 1011.0 0.0
21/06:30am 27.3 29.5 21.8 72 3.7 E 13 19 7 10 1010.9 1010.8 0.0
21/06:00am 26.9 28.9 21.6 72 3.5 ESE 13 20 7 11 1010.4 1010.3 0.0
21/05:30am 27.0 29.1 21.7 73 3.5 ESE 13 19 7 10 1010.0 1009.9 0.0
21/05:00am 27.3 29.1 21.8 72 3.7 ESE 15 22 8 12 1009.8 1009.7 0.0
21/04:30am 27.3 28.7 21.8 72 3.7 ESE 17 22 9 12 1009.4 1009.3 0.0
21/04:00am 27.4 28.8 21.9 72 3.7 ESE 17 24 9 13 1009.3 1009.2 0.0
21/03:30am 27.3 29.1 21.8 72 3.7 ESE 15 20 8 11 1009.3 1009.2 0.0
21/03:00am 27.2 29.4 21.9 73 3.6 ESE 13 15 7 8 1009.5 1009.4 0.0
21/02:30am 27.3 29.6 22.0 73 3.6 ESE 13 19 7 10 1009.6 1009.5 0.0
21/02:00am 27.4 30.1 22.1 73 3.6 E 11 15 6 8 1009.8 1009.7 0.0
21/01:30am 27.5 29.8 22.0 72 3.7 E 13 20 7 11 1010.0 1009.9 0.0
21/01:00am 27.5 29.8 22.0 72 3.7 E 13 19 7 10 1010.1 1010.0 0.0
21/12:30am 27.5 29.8 22.0 72 3.7 E 13 22 7 12 1010.1 1010.0 0.0
21/12:00am 27.6 29.5 22.1 72 3.7 ESE 15 22 8 12 1010.5 1010.4 0.0
 
Date/Time
EST
Temp
°C
App
Temp
°C
Dew
Point
Rel
Hum
%
Delta-T
°C
Wind Press
QNH
hPa
Press
MSL
hPa
Rain
since 9 am
mm
Dir
 
Spd
km/h
Gust
km/h
Spd
kts
Gust
kts
20/11:30pm 27.4 29.7 22.1 73 3.6 ESE 13 19 7 10 1010.9 1010.8 0.0
20/11:00pm 27.7 29.6 22.0 71 3.8 ESE 15 22 8 12 1011.0 1010.9 0.0
20/10:30pm 27.7 30.0 22.0 71 3.8 ESE 13 22 7 12 1011.0 1010.9 0.0
20/10:00pm 27.6 29.8 21.9 71 3.8 ESE 13 20 7 11 1010.9 1010.8 0.0
20/09:30pm 27.7 29.6 22.0 71 3.8 ESE 15 24 8 13 1010.5 1010.4 0.0
20/09:00pm 27.9 29.0 21.9 70 4.0 ESE 19 28 10 15 1010.4 1010.3 0.0
20/08:30pm 28.1 29.0 21.6 68 4.4 ESE 19 26 10 14 1010.2 1010.1 0.0
20/08:00pm 28.1 29.5 21.9 69 4.2 ESE 17 24 9 13 1010.1 1010.0 0.0
20/07:30pm 28.0 29.2 21.5 67 4.3 ESE 17 20 9 11 1009.9 1009.8 0.0
20/07:00pm 27.9 29.6 21.7 69 4.2 ESE 15 24 8 13 1009.6 1009.5 0.0
20/06:30pm 28.3 29.1 21.8 68 4.4 ESE 20 32 11 17 1009.3 1009.2 0.0
20/06:00pm 29.1 29.4 21.6 64 5.0 ESE 22 33 12 18 1009.1 1009.0 0.0
20/05:30pm 29.2 29.4 21.4 63 5.2 ESE 22 33 12 18 1008.9 1008.8 0.0
20/05:00pm 29.8 29.6 21.2 60 5.8 ESE 24 32 13 17 1008.6 1008.5 0.0
20/04:30pm 30.3 30.5 21.4 59 6.0 ESE 22 30 12 16 1008.4 1008.3 0.0
20/04:00pm 30.7 30.6 21.5 58 6.2 ESE 24 32 13 17 1008.2 1008.1 0.0
20/03:30pm 31.0 30.6 20.9 55 6.7 ESE 24 33 13 18 1008.3 1008.2 0.0
20/03:00pm 31.4 31.4 21.6 56 6.6 SE 24 33 13 18 1008.5 1008.4 0.0
20/02:30pm 31.5 31.5 21.7 56 6.6 ESE 24 37 13 20 1008.7 1008.6 0.0
20/02:00pm 31.3 31.1 20.6 53 7.1 SE 22 32 12 17 1008.9 1008.8 0.0
20/01:30pm 32.3 33.3 22.1 55 6.9 SE 20 30 11 16 1009.2 1009.1 0.0
20/01:00pm 32.3 32.7 21.8 54 7.1 SE 22 33 12 18 1009.6 1009.5 0.0
20/12:30pm 32.1 32.7 21.3 53 7.3 ESE 20 32 11 17 1010.1 1010.0 0.0
20/12:00pm 32.1 33.3 22.2 56 6.8 SE 19 32 10 17 1010.5 1010.4 0.0
20/11:30am 32.0 32.9 21.5 53 7.1 SE 19 26 10 14 1011.0 1010.9 0.0
20/11:00am 31.4 32.0 21.0 54 7.0 SSE 19 26 10 14 1011.3 1011.2 0.0
20/10:30am 31.4 32.2 21.3 55 6.8 SE 19 26 10 14 1011.7 1011.6 0.0

Other Formats:

Comma delimited format used in spreadsheet applications
http://www.bom.gov.au/fwo/IDQ60801/IDQ60801.94188.axf

JavaScript Object Notation format (JSON) in row-major order
http://www.bom.gov.au/fwo/IDQ60801/IDQ60801.94188.json